• Join FlightAware (Why Join?)
  • Login
  • US Flag 
12:24PM EDT


 

Airport Tracker/Info


-or-


 

Live Flight TrackerFlight Track Log ✈ SWA681 ✈ 30-Apr-2012 ✈ KMDW - KALB

Flight Track Log - Related Links

Times and Time Zones

All times are in EDT time to prevent confusion due to time zone crossing. See the SWA681 flight status page for this flight to view local times or setup timezone preferences in your user account.

Time Position Orientation Groundspeed Altitude Reporting Facility
EDT Latitude Longitude Course Direction KTS MPH feet Rate Location/Type
10:06PM 41.7763 -87.7080 19° North  Level FlightAware Approximate
10:07PM 41.7667 -87.5425 285° West  Level FlightAware Approximate
10:08PM 41.7667 -87.3757 277° West  Level FlightAware Approximate
10:09PM 41.7754 -87.2093 273° West  Level FlightAware Approximate
10:10PM 41.7500 -87.0498 276° West  Level FlightAware Approximate
10:11PM 41.7500 -86.8830 275° West  Level FlightAware Approximate
10:12PM 41.7556 -86.7165 274° West  Level FlightAware Approximate
10:13PM 41.7645 -86.5501 273° West  Level FlightAware Approximate
10:14PM 41.7667 -86.3833 272° West  Level FlightAware Approximate
10:15PM 41.7818 -86.2186 271° West  Level FlightAware Approximate
10:16PM 41.8089 -86.0557 270° West  Level FlightAware Approximate
10:18PM 41.7967 -87.6983 101° East 233 268 4,000  Level Chicago Center
10:19PM 41.7825 -87.5983 86° East 279 321 4,000  Level Chicago Center
10:20PM 41.7872 -87.4953 87° East 279 321 4,000 900 Level Chicago Center
10:21PM 41.7917 -87.3892 88° East 273 314 5,800 2,700 Climbing Chicago Center
10:22PM 41.7939 -87.2806 95° East 279 321 9,500 3,300 Climbing Chicago Center
10:23PM 41.7856 -87.1639 88° East 289 333 12,500 2,880 Climbing Chicago Center
10:25PM 41.7944 -86.8767 83° East 368 423 18,200 3,060 Climbing Chicago Center
10:26PM 41.8094 -86.7089 84° East 409 471 21,800 3,000 Climbing Chicago Center
10:27PM 41.8222 -86.5494 82° East 420 483 24,200 2,160 Climbing Chicago Center
10:28PM 41.8389 -86.3842 86° East 426 490 26,200 1,800 Climbing Chicago Center
10:29PM 41.8489 -86.2111 83° East 450 518 27,900 1,560 Climbing Chicago Center
10:30PM 41.8647 -86.0317 85° East 468 539 29,400 1,500 Climbing Chicago Center
10:31PM 41.8778 -85.8442 84° East 488 562 31,000 1,320 Climbing Chicago Center
10:32PM 41.8914 -85.6733 84° East 500 575 32,100 1,440 Climbing Chicago Center
10:33PM 41.9056 -85.4769 86° East 512 589 33,900 1,860 Climbing Chicago Center
10:34PM 41.9167 -85.2581 85° East 524 603 36,200 1,440 Climbing Cleveland Center
10:35PM 41.9311 -85.0522 84° East 524 603 37,000 360 Climbing Cleveland Center
10:36PM 41.9447 -84.8606 85° East 514 592 37,000  Level Cleveland Center
10:37PM 41.9581 -84.6658 83° East 514 592 37,000  Level Cleveland Center
10:38PM 41.9753 -84.4714 80° East 514 592 37,000  Level Cleveland Center
10:39PM 42.0003 -84.2856 81° East 514 592 37,000  Level Cleveland Center
10:40PM 42.0231 -84.0942 81° East 520 598 37,000  Level Cleveland Center
10:41PM 42.0453 -83.9078 81° East 514 592 37,000  Level Cleveland Center
10:42PM 42.0672 -83.7161 81° East 514 592 37,000  Level Cleveland Center
10:43PM 42.0861 -83.5519 81° East 509 586 37,000  Level Cleveland Center
10:44PM 42.1097 -83.3597 82° East 509 586 37,100 660 Climbing Cleveland Center
10:45PM 42.1314 -83.1478 78° East 516 594 38,400 900 Climbing Cleveland Center
10:46PM 42.1606 -82.9586 79° East 523 602 39,000 300 Climbing Cleveland Center
10:47PM 42.1872 -82.7717 83° East 512 589 39,000  Level Cleveland Center
10:48PM 42.2053 -82.5789 82° East 512 589 39,000  Level Cleveland Center
10:49PM 42.2228 -82.4086 82° East 512 589 39,000  Level Cleveland Center
10:50PM 42.2422 -82.2183 81° East 518 596 39,000  Level Cleveland Center
10:51PM 42.2658 -82.0056 83° East 518 596 39,000  Level Cleveland Center
10:52PM 42.2828 -81.8153 83° East 518 596 39,000  Level Cleveland Center
10:53PM 42.3011 -81.6247 83° East 518 596 39,000  Level Cleveland Center
10:54PM 42.3194 -81.4339 84° East 518 596 39,000  Level Cleveland Center
10:55PM 42.3333 -81.2431 82° East 513 590 39,000  Level Cleveland Center
10:56PM 42.3508 -81.0719 84° East 513 590 39,000  Level Cleveland Center
10:57PM 42.3661 -80.8783 83° East 513 590 39,000  Level Cleveland Center
10:58PM 42.3831 -80.6872 84° East 520 598 39,000  Level Cleveland Center
10:59PM 42.3978 -80.4961 84° East 520 598 39,000  Level Cleveland Center
11:00PM 42.4119 -80.3019 83° East 520 598 39,000  Level Cleveland Center
11:01PM 42.4300 -80.0881 84° East 520 598 39,000  Level Cleveland Center
11:02PM 42.4456 -79.8994 83° East 514 592 39,000  Level Cleveland Center
11:03PM 42.4611 -79.7247 85° East 514 592 39,000  Level Cleveland Center
11:04PM 42.4742 -79.5331 84° East 519 597 39,000  Level Cleveland Center
11:05PM 42.4889 -79.3358 84° East 519 597 39,000  Level Cleveland Center
11:06PM 42.5033 -79.1442 85° East 519 597 39,000  Level Cleveland Center
11:07PM 42.5153 -78.9467 84° East 524 603 39,000  Level Cleveland Center
11:08PM 42.5292 -78.7519 85° East 519 597 39,000  Level Cleveland Center
11:09PM 42.5422 -78.5400 85° East 519 597 39,000  Level Cleveland Center
11:10PM 42.5553 -78.3422 86° East 519 597 39,000  Level Cleveland Center
11:11PM 42.5658 -78.1503 86° East 514 592 39,000  Level Cleveland Center
11:12PM 42.5764 -77.9608 86° East 514 592 39,000  Level Cleveland Center
11:13PM 42.5864 -77.7714 85° East 503 579 39,000  Level Cleveland Center
11:14PM 42.5983 -77.5819 85° East 503 579 39,000 -660 Level Cleveland Center
11:16PM 42.6239 -77.1447 87° East 515 593 36,900 -960 Descending Boston Center
11:17PM 42.6314 -76.9589 86° East 505 581 36,000 -960 Descending Boston Center
11:18PM 42.6411 -76.7675 85° East 500 575 35,000 -900 Descending Boston Center
11:19PM 42.6514 -76.6017 87° East 493 567 34,200 -900 Descending Boston Center
11:20PM 42.6581 -76.4128 86° East 500 575 33,200 -1,800 Descending Boston Center
11:21PM 42.6672 -76.2100 87° East 494 568 30,700 -2,400 Descending Boston Center
11:22PM 42.6753 -76.0269 87° East 488 562 28,400 -2,220 Descending Boston Center
11:23PM 42.6828 -75.8494 87° East 488 562 26,300 -2,100 Descending Boston Center
11:24PM 42.6894 -75.6917 88° East 468 539 24,200 -2,100 Descending Boston Center
11:25PM 42.6942 -75.5250 87° East 455 524 22,100 -2,100 Descending Boston Center
11:26PM 42.7006 -75.3614 87° East 434 499 20,100 -1,980 Descending Boston Center
11:27PM 42.7067 -75.2036 87° East 428 493 18,200 -2,040 Descending Boston Center
11:28PM 42.7122 -75.0456 88° East 418 481 16,100 -2,280 Descending Boston Center
11:29PM 42.7156 -74.8958 87° East 410 472 14,100 -2,220 Descending Boston Center
11:30PM 42.7200 -74.7858 88° East 400 460 12,500 -1,620 Descending Boston Center
11:31PM 42.7233 -74.6275 87° East 376 433 11,000 -720 Descending Boston Center
11:32PM 42.7278 -74.4950 78° East 325 374 11,000 -600 Level Boston Center
11:33PM 42.7467 -74.3739 68° East 323 372 9,900 -1,680 Descending Boston Center
11:34PM 42.7797 -74.2647 68° East 322 371 7,700 -1,860 Descending Boston Center
11:35PM 42.8125 -74.1553 68° East 313 360 6,200 -1,860 Descending Boston Center
11:36PM 42.8389 -74.0653 84° East 271 312 4,200 -1,740 Descending Boston Center
11:37PM 42.8464 -73.9750 72° East 220 253 2,900 10,740 Descending Boston Center
11:38PM 42.8750 -73.8567 75° East 251 289 29,000 11,400 Climbing Boston Center
11:39PM 42.8928 -73.7636 209° Southwest 251 289 29,000 -15,720 Level Boston Center
11:40PM 42.8214 -73.8186 169° South 125 144 1,500 -16,080 Descending Boston Center
11:41PM 42.7881 -73.8094 51° Northeast 126 145 900 12,180 Descending Boston Center
11:42PM 42.9261 -73.5800 51° Northeast 251 289 29,000 22,440 Climbing Boston Center